createdAt,value
2022-08-01T00:00:09.368Z,1.13
2022-08-01T00:02:38.995Z,0.73
2022-08-01T00:05:07.255Z,1.30
2022-08-01T00:07:35.364Z,0.95
2022-08-01T00:10:04.167Z,1.38
2022-08-01T00:12:31.062Z,0.88
2022-08-01T00:14:57.843Z,0.80
2022-08-01T00:17:24.677Z,0.90
2022-08-01T00:19:51.524Z,1.02
2022-08-01T00:22:18.346Z,0.85
2022-08-01T00:24:45.101Z,1.05
2022-08-01T00:27:11.895Z,0.88
2022-08-01T00:30:12.815Z,0.90
2022-08-01T00:32:25.856Z,1.05
2022-08-01T00:34:52.707Z,1.25
2022-08-01T00:37:19.557Z,1.05
2022-08-01T00:39:46.302Z,1.08
2022-08-01T00:42:14.435Z,0.85
2022-08-01T00:44:41.550Z,1.08
2022-08-01T00:47:08.887Z,0.80
2022-08-01T00:49:36.008Z,0.68
2022-08-01T00:52:07.900Z,0.80
2022-08-01T00:54:35.405Z,0.60
2022-08-01T00:57:03.435Z,0.95
2022-08-01T00:59:31.183Z,0.80
2022-08-01T01:01:58.839Z,0.80
2022-08-01T01:04:26.134Z,1.00
2022-08-01T01:06:52.890Z,0.60
2022-08-01T01:09:33.542Z,1.40
2022-08-01T01:12:04.183Z,0.80
2022-08-01T01:15:06.172Z,0.90
2022-08-01T01:18:06.679Z,0.82
2022-08-01T01:20:41.309Z,0.60
2022-08-01T01:23:25.346Z,0.60
2022-08-01T01:26:18.596Z,0.60
2022-08-01T01:29:17.540Z,0.93
2022-08-01T01:32:16.176Z,0.80
2022-08-01T01:34:47.151Z,0.80
2022-08-01T01:37:18.660Z,0.47
2022-08-01T01:39:48.902Z,0.63
2022-08-01T01:42:23.928Z,0.90
2022-08-01T01:44:51.821Z,0.82
2022-08-01T01:47:19.072Z,0.70
2022-08-01T01:49:48.163Z,0.60
2022-08-01T01:52:17.288Z,0.60
2022-08-01T01:54:48.634Z,0.70
2022-08-01T01:57:16.871Z,0.70
2022-08-01T01:59:45.368Z,0.77
2022-08-01T02:02:13.816Z,0.80
2022-08-01T02:04:43.792Z,0.68
2022-08-01T02:07:17.633Z,0.68
2022-08-01T02:09:46.151Z,0.68
2022-08-01T02:12:14.451Z,0.80
2022-08-01T02:14:43.688Z,0.80
2022-08-01T02:17:12.560Z,0.63
2022-08-01T02:19:41.257Z,0.85
2022-08-01T02:22:12.800Z,0.68
2022-08-01T02:24:50.455Z,0.50
2022-08-01T02:27:24.462Z,1.00
2022-08-01T02:29:54.089Z,0.63
2022-08-01T02:32:45.146Z,0.80
2022-08-01T02:35:33.952Z,0.50
2022-08-01T02:38:02.748Z,1.00
2022-08-01T02:40:33.688Z,0.70
2022-08-01T02:43:03.467Z,0.60
2022-08-01T02:45:31.626Z,0.80
2022-08-01T02:48:09.082Z,1.10
2022-08-01T02:50:37.004Z,1.08
2022-08-01T02:53:07.133Z,0.90
2022-08-01T02:55:35.023Z,0.82
2022-08-01T02:58:03.213Z,1.25
2022-08-01T03:00:32.295Z,1.42
2022-08-01T03:03:00.644Z,1.10
2022-08-01T03:05:28.251Z,1.52
2022-08-01T03:08:02.739Z,0.73
2022-08-01T03:10:31.842Z,0.88
2022-08-01T03:13:01.321Z,0.77
2022-08-01T03:15:31.458Z,0.77
2022-08-01T03:18:00.673Z,0.77
2022-08-01T03:20:30.427Z,0.90
2022-08-01T03:22:59.174Z,0.60
2022-08-01T03:25:28.212Z,0.80
2022-08-01T03:28:00.812Z,0.80
2022-08-01T03:30:28.921Z,0.77
2022-08-01T03:32:56.545Z,1.17
2022-08-01T03:35:25.757Z,0.60
2022-08-01T03:38:15.338Z,0.70
2022-08-01T03:40:49.715Z,0.45
2022-08-01T03:43:39.487Z,0.93
2022-08-01T03:46:09.150Z,0.80
2022-08-01T03:48:41.726Z,1.27
2022-08-01T03:51:09.945Z,0.60
2022-08-01T03:53:42.345Z,0.80
2022-08-01T03:56:11.668Z,0.80
2022-08-01T03:58:41.338Z,1.58
2022-08-01T04:01:15.514Z,0.60
2022-08-01T04:03:44.161Z,0.80
2022-08-01T04:06:11.628Z,0.95
2022-08-01T04:08:40.129Z,0.93
2022-08-01T04:11:08.806Z,0.60
2022-08-01T04:13:37.238Z,0.50
2022-08-01T04:16:05.782Z,0.70
2022-08-01T04:18:33.361Z,0.90
2022-08-01T04:21:00.305Z,0.80
2022-08-01T04:23:30.519Z,0.60
2022-08-01T04:26:00.234Z,0.60
2022-08-01T04:28:27.003Z,0.50
2022-08-01T04:31:01.229Z,0.77
2022-08-01T04:33:30.895Z,0.70
2022-08-01T04:36:04.834Z,0.95
2022-08-01T04:38:34.613Z,1.23
2022-08-01T04:41:08.535Z,1.05
2022-08-01T04:43:37.509Z,0.90
2022-08-01T04:46:05.099Z,1.13
2022-08-01T04:48:34.562Z,1.10
2022-08-01T04:51:01.935Z,0.82
2022-08-01T04:53:28.939Z,0.93
2022-08-01T04:55:56.626Z,0.80
2022-08-01T04:58:23.533Z,0.75
2022-08-01T05:00:50.664Z,0.80
2022-08-01T05:03:17.497Z,1.23
2022-08-01T05:05:44.823Z,0.90
2022-08-01T05:08:11.700Z,1.00
2022-08-01T05:10:38.652Z,0.85
2022-08-01T05:13:05.478Z,1.05
2022-08-01T05:15:32.306Z,1.10
2022-08-01T05:17:59.226Z,0.80
2022-08-01T05:20:25.998Z,0.60
2022-08-01T05:22:52.988Z,1.17
2022-08-01T05:25:56.268Z,1.10
2022-08-01T05:28:07.390Z,1.00
2022-08-01T05:30:35.305Z,1.52
2022-08-01T05:33:02.087Z,1.00
2022-08-01T05:35:49.018Z,1.23
2022-08-01T05:38:15.818Z,0.90
2022-08-01T05:40:45.038Z,1.48
2022-08-01T05:43:11.977Z,1.48
2022-08-01T05:45:38.853Z,0.80
2022-08-01T05:48:05.955Z,0.80
2022-08-01T05:50:34.744Z,1.25
2022-08-01T05:53:01.634Z,1.30
2022-08-01T05:55:28.375Z,1.13
2022-08-01T05:57:55.347Z,1.70
2022-08-01T06:00:22.330Z,1.13
2022-08-01T06:02:49.158Z,1.42
2022-08-01T06:05:17.243Z,1.20
2022-08-01T06:07:44.213Z,1.35
2022-08-01T06:10:11.014Z,1.23
2022-08-01T06:12:38.373Z,1.45
2022-08-01T06:15:06.875Z,1.27
2022-08-01T06:17:33.970Z,0.80
2022-08-01T06:20:00.939Z,1.25
2022-08-01T06:22:28.033Z,1.73
2022-08-01T06:24:54.875Z,1.52
2022-08-01T06:27:22.760Z,1.25
2022-08-01T06:29:51.247Z,1.13
2022-08-01T06:32:27.034Z,1.20
2022-08-01T06:34:56.418Z,1.33
2022-08-01T06:37:24.287Z,1.30
2022-08-01T06:39:51.212Z,1.17
2022-08-01T06:42:18.670Z,1.40
2022-08-01T06:44:46.146Z,1.60
2022-08-01T06:47:13.407Z,1.30
2022-08-01T06:49:40.457Z,1.08
2022-08-01T06:52:07.811Z,1.48
2022-08-01T06:54:34.986Z,1.00
2022-08-01T06:57:01.975Z,1.17
2022-08-01T06:59:29.077Z,1.40
2022-08-01T07:01:56.131Z,1.63
2022-08-01T07:04:23.030Z,1.65
2022-08-01T07:06:49.895Z,1.40
2022-08-01T07:09:16.678Z,1.02
2022-08-01T07:11:43.481Z,1.08
2022-08-01T07:14:10.311Z,1.00
2022-08-01T07:16:37.220Z,1.38
2022-08-01T07:19:04.125Z,1.65
2022-08-01T07:21:38.498Z,1.40
2022-08-01T07:24:15.123Z,2.10
2022-08-01T07:26:53.962Z,1.77
2022-08-01T07:29:30.762Z,1.30
2022-08-01T07:32:01.165Z,2.03
2022-08-01T07:34:27.937Z,2.20
2022-08-01T07:36:54.841Z,1.30
2022-08-01T07:39:21.980Z,2.00
2022-08-01T07:42:05.675Z,1.60
2022-08-01T07:44:33.827Z,1.50
2022-08-01T07:47:00.590Z,1.42
2022-08-01T07:49:27.437Z,1.50
2022-08-01T07:52:03.324Z,1.65
2022-08-01T07:54:34.822Z,2.50
2022-08-01T07:57:03.422Z,1.70
2022-08-01T07:59:30.631Z,1.63
2022-08-01T08:01:58.010Z,1.50
2022-08-01T08:04:25.187Z,1.85
2022-08-01T08:06:53.345Z,1.15
2022-08-01T08:09:20.769Z,2.00
2022-08-01T08:11:48.609Z,1.63
2022-08-01T08:14:17.042Z,1.90
2022-08-01T08:16:47.820Z,1.35
2022-08-01T08:19:15.169Z,1.23
2022-08-01T08:21:42.220Z,1.38
2022-08-01T08:24:26.182Z,1.00
2022-08-01T08:26:58.615Z,1.27
2022-08-01T08:29:27.382Z,0.80
2022-08-01T08:31:55.930Z,1.30
2022-08-01T08:34:24.618Z,1.80
2022-08-01T08:36:52.339Z,2.00
2022-08-01T08:39:20.240Z,1.50
2022-08-01T08:41:49.432Z,1.17
2022-08-01T08:44:18.395Z,1.35
2022-08-01T08:46:48.282Z,0.85
2022-08-01T08:49:27.140Z,0.70
2022-08-01T08:52:04.315Z,0.88
2022-08-01T08:54:32.308Z,1.00
2022-08-01T08:57:01.087Z,1.67
2022-08-01T08:59:29.145Z,1.08
2022-08-01T09:01:56.670Z,0.95
2022-08-01T09:04:25.943Z,1.38
2022-08-01T09:06:54.674Z,1.52
2022-08-01T09:09:21.976Z,1.20
2022-08-01T09:11:56.840Z,0.80
2022-08-01T09:14:27.156Z,1.30
2022-08-01T09:17:07.536Z,1.40
2022-08-01T09:19:41.425Z,0.85
2022-08-01T09:22:11.421Z,0.75
2022-08-01T09:24:40.913Z,0.88
2022-08-01T09:27:21.875Z,0.75
2022-08-01T09:30:00.626Z,1.35
2022-08-01T09:32:35.281Z,1.10
2022-08-01T09:35:30.657Z,1.17
2022-08-01T09:38:20.445Z,1.35
2022-08-01T09:40:58.054Z,1.10
2022-08-01T09:43:31.927Z,1.15
2022-08-01T09:46:00.901Z,1.45
2022-08-01T09:48:29.568Z,0.95
2022-08-01T09:51:04.602Z,1.17
2022-08-01T09:53:51.147Z,1.20
2022-08-01T09:56:20.655Z,0.98
2022-08-01T09:59:00.430Z,1.33
2022-08-01T10:01:35.928Z,1.08
2022-08-01T10:04:11.385Z,0.70
2022-08-01T10:06:39.839Z,0.90
2022-08-01T10:09:08.636Z,0.63
2022-08-01T10:11:39.985Z,1.52
2022-08-01T10:14:08.246Z,1.80
2022-08-01T10:16:37.160Z,1.15
2022-08-01T10:19:14.537Z,0.90
2022-08-01T10:21:56.619Z,1.42
2022-08-01T10:24:28.325Z,1.20
2022-08-01T10:27:05.636Z,1.40
2022-08-01T10:30:05.492Z,1.20
2022-08-01T10:32:36.627Z,1.35
2022-08-01T10:35:14.731Z,1.10
2022-08-01T10:37:52.182Z,0.98
2022-08-01T10:40:35.593Z,0.82
2022-08-01T10:43:03.717Z,0.90
2022-08-01T10:45:31.974Z,1.10
2022-08-01T10:48:10.879Z,1.38
2022-08-01T10:50:48.486Z,1.25
2022-08-01T10:53:24.192Z,1.23
2022-08-01T10:58:42.735Z,1.05
2022-08-01T11:01:29.872Z,1.15
2022-08-01T11:04:16.009Z,1.05
2022-08-01T11:07:12.771Z,1.05
2022-08-01T11:09:49.406Z,0.93
2022-08-01T11:12:24.569Z,1.10
2022-08-01T11:15:03.132Z,1.10
2022-08-01T11:17:50.056Z,0.90
2022-08-01T11:20:24.672Z,1.50
2022-08-01T11:23:02.357Z,1.33
2022-08-01T11:26:05.265Z,1.13
2022-08-01T11:28:33.261Z,0.98
2022-08-01T11:31:13.973Z,1.50
2022-08-01T11:33:46.839Z,1.40
2022-08-01T11:36:14.411Z,0.95
2022-08-01T11:38:58.397Z,1.30
2022-08-01T11:41:38.546Z,1.88
2022-08-01T11:44:07.328Z,1.40
2022-08-01T11:47:08.692Z,1.02
2022-08-01T11:49:55.705Z,0.82
2022-08-01T11:52:31.327Z,1.17
2022-08-01T11:55:10.255Z,1.65
2022-08-01T11:57:39.597Z,1.42
2022-08-01T12:00:17.444Z,1.42
2022-08-01T12:02:46.846Z,0.88
2022-08-01T12:05:18.425Z,0.82
2022-08-01T12:07:46.900Z,1.37
2022-08-01T12:10:18.963Z,0.77
2022-08-01T12:15:19.265Z,1.08
2022-08-01T12:17:57.909Z,0.98
2022-08-01T12:20:30.460Z,1.00
2022-08-01T12:23:03.341Z,1.13
2022-08-01T12:25:33.282Z,1.40
2022-08-01T12:28:11.079Z,1.23
2022-08-01T12:30:38.809Z,0.88
2022-08-01T12:33:11.190Z,0.88
2022-08-01T12:35:42.952Z,1.25
2022-08-01T12:38:26.088Z,1.65
2022-08-01T12:40:54.716Z,1.15
2022-08-01T12:43:28.288Z,0.88
2022-08-01T12:46:02.494Z,1.10
2022-08-01T12:48:32.791Z,1.27
2022-08-01T12:51:02.093Z,1.15
2022-08-01T12:53:41.292Z,1.30
2022-08-01T12:56:09.632Z,1.25
2022-08-01T12:58:36.525Z,0.98
2022-08-01T13:01:11.298Z,1.23
2022-08-01T13:03:38.708Z,0.98
2022-08-01T13:06:17.159Z,1.10
2022-08-01T13:08:45.982Z,1.20
2022-08-01T13:11:18.154Z,0.90
2022-08-01T13:13:50.402Z,0.90
2022-08-01T13:16:48.789Z,1.30
2022-08-01T13:19:13.111Z,1.25
2022-08-01T13:21:52.892Z,1.30
2022-08-01T13:24:28.828Z,1.17
2022-08-01T13:27:04.826Z,1.33
2022-08-01T13:29:42.177Z,1.17
2022-08-01T13:32:30.079Z,1.20
2022-08-01T13:35:08.537Z,1.45
2022-08-01T13:37:37.158Z,1.42
2022-08-01T13:40:07.191Z,1.60
2022-08-01T13:42:34.644Z,1.50
2022-08-01T13:45:02.928Z,1.55
2022-08-01T13:47:32.580Z,1.17
2022-08-01T13:50:03.169Z,1.08
2022-08-01T13:52:30.481Z,1.50
2022-08-01T13:54:57.492Z,1.50
2022-08-01T13:57:24.836Z,1.65
2022-08-01T13:59:52.581Z,1.35
2022-08-01T14:02:21.218Z,1.42
2022-08-01T14:04:48.193Z,1.67
2022-08-01T14:07:15.402Z,1.52
2022-08-01T14:09:44.996Z,1.20
2022-08-01T14:12:30.026Z,1.30
2022-08-01T14:14:57.389Z,1.30
2022-08-01T14:17:24.369Z,1.23
2022-08-01T14:19:51.145Z,1.17
2022-08-01T14:22:17.900Z,1.38
2022-08-01T14:24:44.773Z,1.30
2022-08-01T14:27:11.512Z,1.00
2022-08-01T14:29:54.777Z,1.60
2022-08-01T14:32:28.847Z,1.23
2022-08-01T14:34:57.179Z,1.90
2022-08-01T14:37:29.211Z,1.00
2022-08-01T14:39:58.947Z,1.00
2022-08-01T14:42:26.534Z,1.40
2022-08-01T14:44:53.377Z,1.50
2022-08-01T14:47:21.804Z,1.38
2022-08-01T14:49:50.286Z,1.60
2022-08-01T14:52:17.728Z,1.10
2022-08-01T14:54:44.490Z,1.30
2022-08-01T14:57:11.267Z,1.00
2022-08-01T14:59:38.120Z,1.38
2022-08-01T15:02:05.358Z,2.78
2022-08-01T15:04:32.244Z,2.38
2022-08-01T15:06:59.066Z,1.20
2022-08-01T15:09:25.889Z,1.40
2022-08-01T15:11:52.813Z,1.55
2022-08-01T15:14:48.668Z,0.93
2022-08-01T15:17:16.794Z,1.30
2022-08-01T15:19:43.866Z,1.23
2022-08-01T15:22:10.871Z,1.60
2022-08-01T15:24:37.794Z,1.52
2022-08-01T15:27:04.959Z,1.05
2022-08-01T15:29:32.779Z,1.65
2022-08-01T15:31:59.725Z,1.67
2022-08-01T15:34:26.558Z,1.70
2022-08-01T15:36:53.425Z,1.50
2022-08-01T15:39:20.169Z,1.55
2022-08-01T15:41:46.921Z,1.38
2022-08-01T15:44:13.716Z,1.27
2022-08-01T15:46:40.857Z,1.30
2022-08-01T15:49:07.904Z,1.88
2022-08-01T15:51:34.798Z,1.23
2022-08-01T15:54:08.369Z,1.65
2022-08-01T15:56:39.820Z,1.30
2022-08-01T15:59:06.732Z,2.03
2022-08-01T16:01:33.587Z,1.13
2022-08-01T16:04:01.525Z,1.55
2022-08-01T16:06:28.797Z,1.38
2022-08-01T16:08:55.579Z,1.50
2022-08-01T16:11:24.002Z,1.40
2022-08-01T16:13:51.230Z,1.70
2022-08-01T16:16:18.053Z,1.65
2022-08-01T16:18:45.263Z,1.67
2022-08-01T16:21:21.012Z,1.63
2022-08-01T16:23:47.948Z,1.00
2022-08-01T16:26:27.899Z,1.83
2022-08-01T16:28:55.402Z,1.65
2022-08-01T16:31:36.174Z,1.60
2022-08-01T16:34:05.135Z,1.60
2022-08-01T16:36:32.052Z,1.67
2022-08-01T16:38:58.876Z,1.67
2022-08-01T16:41:25.653Z,1.95
2022-08-01T16:43:53.713Z,1.58
2022-08-01T16:46:25.592Z,1.63
2022-08-01T16:48:54.176Z,1.85
2022-08-01T16:51:21.276Z,1.98
2022-08-01T16:53:48.104Z,2.15
2022-08-01T16:56:14.977Z,1.92
2022-08-01T16:58:41.867Z,2.13
2022-08-01T17:02:00.608Z,2.35
2022-08-01T17:03:59.438Z,2.10
2022-08-01T17:06:28.287Z,2.50
2022-08-01T17:08:55.154Z,2.45
2022-08-01T17:11:21.932Z,2.90
2022-08-01T17:13:48.934Z,2.72
2022-08-01T17:16:15.772Z,2.25
2022-08-01T17:18:42.612Z,2.25
2022-08-01T17:21:09.454Z,2.47
2022-08-01T17:23:36.516Z,2.50
2022-08-01T17:26:04.341Z,2.25
2022-08-01T17:28:31.341Z,2.45
2022-08-01T17:30:58.756Z,2.33
2022-08-01T17:33:44.595Z,1.83
2022-08-01T17:36:12.248Z,2.20
2022-08-01T17:38:39.052Z,2.10
2022-08-01T17:41:05.859Z,1.85
2022-08-01T17:43:32.623Z,1.65
2022-08-01T17:46:02.259Z,2.22
2022-08-01T17:48:29.469Z,1.77
2022-08-01T17:50:56.383Z,1.80
2022-08-01T17:53:24.128Z,1.85
2022-08-01T17:55:53.740Z,1.92
2022-08-01T17:58:50.341Z,2.13
2022-08-01T18:01:12.604Z,2.13
2022-08-01T18:03:40.892Z,1.58
2022-08-01T18:06:08.947Z,1.90
2022-08-01T18:08:35.926Z,1.58
2022-08-01T18:11:02.895Z,1.77
2022-08-01T18:13:30.055Z,1.90
2022-08-01T18:15:57.216Z,2.15
2022-08-01T18:18:33.016Z,2.35
2022-08-01T18:21:01.910Z,2.13
2022-08-01T18:23:28.871Z,1.83
2022-08-01T18:25:55.885Z,2.00
2022-08-01T18:28:33.756Z,1.58
2022-08-01T18:31:03.859Z,2.55
2022-08-01T18:33:30.722Z,1.67
2022-08-01T18:36:01.930Z,2.13
2022-08-01T18:38:33.097Z,1.70
2022-08-01T18:41:01.309Z,2.03
2022-08-01T18:43:28.450Z,2.10
2022-08-01T18:45:57.195Z,2.30
2022-08-01T18:48:24.587Z,2.30
2022-08-01T18:50:52.346Z,2.30
2022-08-01T18:53:20.715Z,1.70
2022-08-01T18:55:47.569Z,1.95
2022-08-01T18:58:15.122Z,2.08
2022-08-01T19:00:42.324Z,2.17
2022-08-01T19:03:09.839Z,2.10
2022-08-01T19:05:37.381Z,2.08
2022-08-01T19:08:07.840Z,1.90
2022-08-01T19:10:39.752Z,2.47
2022-08-01T19:13:08.204Z,2.58
2022-08-01T19:15:35.921Z,2.13
2022-08-01T19:18:03.632Z,2.72
2022-08-01T19:20:31.050Z,2.22
2022-08-01T19:22:58.024Z,2.97
2022-08-01T19:25:24.881Z,2.72
2022-08-01T19:27:54.271Z,2.75
2022-08-01T19:30:21.206Z,2.95
2022-08-01T19:32:48.974Z,2.42
2022-08-01T19:35:17.019Z,2.88
2022-08-01T19:37:47.037Z,2.13
2022-08-01T19:40:26.621Z,2.65
2022-08-01T19:42:57.458Z,2.38
2022-08-01T19:45:28.550Z,2.00
2022-08-01T19:47:57.417Z,2.67
2022-08-01T19:50:28.895Z,2.42
2022-08-01T19:52:57.593Z,2.63
2022-08-01T19:55:26.472Z,2.88
2022-08-01T19:58:17.251Z,2.80
2022-08-01T20:00:42.822Z,2.30
2022-08-01T20:03:10.359Z,2.80
2022-08-01T20:05:39.069Z,2.75
2022-08-01T20:08:09.360Z,3.45
2022-08-01T20:10:38.212Z,3.38
2022-08-01T20:13:06.634Z,3.78
2022-08-01T20:15:33.459Z,3.63
2022-08-01T20:18:00.830Z,3.55
2022-08-01T20:20:28.166Z,4.32
2022-08-01T20:22:57.502Z,3.50
2022-08-01T20:25:33.594Z,3.63
2022-08-01T20:28:10.772Z,2.85
2022-08-01T20:30:39.807Z,2.95
2022-08-01T20:33:08.303Z,2.80
2022-08-01T20:35:51.560Z,2.75
2022-08-01T20:38:27.785Z,2.25
2022-08-01T20:40:58.800Z,2.97
2022-08-01T20:43:27.558Z,2.63
2022-08-01T20:45:55.770Z,1.90
2022-08-01T20:48:25.448Z,2.90
2022-08-01T20:51:11.489Z,2.40
2022-08-01T20:53:49.164Z,2.15
2022-08-01T20:56:17.771Z,2.97
2022-08-01T20:59:06.601Z,2.53
2022-08-01T21:01:46.954Z,1.90
2022-08-01T21:04:43.706Z,2.03
2022-08-01T21:07:35.519Z,1.80
2022-08-01T21:10:11.672Z,1.90
2022-08-01T21:12:40.824Z,1.58
2022-08-01T21:15:11.829Z,1.83
2022-08-01T21:17:45.864Z,1.75
2022-08-01T21:20:14.360Z,1.90
2022-08-01T21:22:47.403Z,1.80
2022-08-01T21:25:23.266Z,1.30
2022-08-01T21:27:53.723Z,1.70
2022-08-01T21:30:20.649Z,1.70
2022-08-01T21:32:48.981Z,2.13
2022-08-01T21:35:18.641Z,2.20
2022-08-01T21:37:51.808Z,1.35
2022-08-01T21:40:21.639Z,1.15
2022-08-01T21:42:50.030Z,1.50
2022-08-01T21:45:20.760Z,1.98
2022-08-01T21:47:49.027Z,1.42
2022-08-01T21:50:16.142Z,1.63
2022-08-01T21:52:44.905Z,1.17
2022-08-01T21:55:37.073Z,1.58
2022-08-01T21:58:13.883Z,1.48
2022-08-01T22:00:46.026Z,1.50
2022-08-01T22:03:12.700Z,1.65
2022-08-01T22:05:50.324Z,1.58
2022-08-01T22:08:30.414Z,1.40
2022-08-01T22:11:00.545Z,1.40
2022-08-01T22:13:31.381Z,1.58
2022-08-01T22:15:59.230Z,1.30
2022-08-01T22:18:28.367Z,1.27
2022-08-01T22:20:55.863Z,1.42
2022-08-01T22:23:23.220Z,1.08
2022-08-01T22:25:54.810Z,1.42
2022-08-01T22:28:23.179Z,1.30
2022-08-01T22:30:54.514Z,1.00
2022-08-01T22:33:21.817Z,1.63
2022-08-01T22:35:54.968Z,1.25
2022-08-01T22:38:23.024Z,1.38
2022-08-01T22:40:53.078Z,0.93
2022-08-01T22:43:37.637Z,1.10
2022-08-01T22:46:10.417Z,0.82
2022-08-01T22:48:49.581Z,1.27
2022-08-01T22:51:34.088Z,1.00
2022-08-01T22:54:03.609Z,1.83
2022-08-01T22:56:36.141Z,1.35
2022-08-01T23:01:34.507Z,1.20
2022-08-01T23:04:02.588Z,1.40
2022-08-01T23:06:29.334Z,1.05
2022-08-01T23:08:57.017Z,1.00
2022-08-01T23:11:24.643Z,1.10
2022-08-01T23:13:52.436Z,1.08
2022-08-01T23:16:23.313Z,0.75
2022-08-01T23:18:55.243Z,0.90
2022-08-01T23:21:23.135Z,0.65
2022-08-01T23:23:50.628Z,1.10
2022-08-01T23:26:18.564Z,0.90
2022-08-01T23:28:46.213Z,0.60
2022-08-01T23:31:14.473Z,0.90
2022-08-01T23:33:41.481Z,1.00
2022-08-01T23:36:08.608Z,1.25
2022-08-01T23:38:35.530Z,0.85
2022-08-01T23:41:02.351Z,1.20
2022-08-01T23:43:29.215Z,0.80
2022-08-01T23:46:04.744Z,0.63
2022-08-01T23:48:36.659Z,0.90
2022-08-01T23:51:07.609Z,0.90
2022-08-01T23:53:38.238Z,0.82
2022-08-01T23:56:05.574Z,0.70
2022-08-01T23:58:32.565Z,0.90
